sensor_id;sensor_type;location;lat;lon;timestamp;pressure;altitude;pressure_sealevel;temperature;humidity
64679;BME280;51094;53.864;27.676;2023-04-26T00:02:01;98066.38;;;10.86;66.98
64679;BME280;51094;53.864;27.676;2023-04-26T00:04:30;97990.34;;;10.45;66.80
64679;BME280;51094;53.864;27.676;2023-04-26T00:06:57;97911.88;;;9.93;66.10
64679;BME280;51094;53.864;27.676;2023-04-26T00:09:26;98064.34;;;10.80;66.32
64679;BME280;51094;53.864;27.676;2023-04-26T00:11:52;97995.41;;;10.47;66.09
64679;BME280;51094;53.864;27.676;2023-04-26T00:14:19;98014.41;;;10.57;66.08
64679;BME280;51094;53.864;27.676;2023-04-26T00:16:46;97878.81;;;9.66;65.65
64679;BME280;51094;53.864;27.676;2023-04-26T00:19:13;98062.81;;;10.87;66.02
64679;BME280;51094;53.864;27.676;2023-04-26T00:21:41;97986.78;;;10.46;65.74
64679;BME280;51094;53.864;27.676;2023-04-26T00:24:08;97972.00;;;10.47;65.32
64679;BME280;51094;53.864;27.676;2023-04-26T00:26:35;98064.97;;;11.01;64.62
64679;BME280;51094;53.864;27.676;2023-04-26T00:29:04;98009.22;;;10.66;64.99
64679;BME280;51094;53.864;27.676;2023-04-26T00:31:33;98057.69;;;11.14;64.42
64679;BME280;51094;53.864;27.676;2023-04-26T00:34:00;98019.69;;;10.94;64.41
64679;BME280;51094;53.864;27.676;2023-04-26T00:36:27;97951.22;;;10.56;64.90
64679;BME280;51094;53.864;27.676;2023-04-26T00:38:54;97996.75;;;10.80;65.31
64679;BME280;51094;53.864;27.676;2023-04-26T00:41:21;97952.97;;;10.65;64.90
64679;BME280;51094;53.864;27.676;2023-04-26T00:43:48;98052.97;;;11.37;64.53
64679;BME280;51094;53.864;27.676;2023-04-26T00:46:15;97980.38;;;10.97;64.91
64679;BME280;51094;53.864;27.676;2023-04-26T00:48:43;98055.00;;;11.43;64.45
64679;BME280;51094;53.864;27.676;2023-04-26T00:51:10;98044.19;;;11.38;63.96
64679;BME280;51094;53.864;27.676;2023-04-26T00:53:38;98062.22;;;11.49;64.04
64679;BME280;51094;53.864;27.676;2023-04-26T00:56:06;98006.63;;;11.13;64.29
64679;BME280;51094;53.864;27.676;2023-04-26T00:58:36;98077.84;;;11.49;64.60
64679;BME280;51094;53.864;27.676;2023-04-26T01:01:03;98035.69;;;11.36;64.86
64679;BME280;51094;53.864;27.676;2023-04-26T01:03:30;97994.06;;;10.99;64.98
64679;BME280;51094;53.864;27.676;2023-04-26T01:05:57;98025.50;;;11.25;65.62
64679;BME280;51094;53.864;27.676;2023-04-26T01:08:24;98023.84;;;11.24;65.91
64679;BME280;51094;53.864;27.676;2023-04-26T01:10:51;98040.09;;;11.36;66.96
64679;BME280;51094;53.864;27.676;2023-04-26T01:13:18;97961.00;;;10.82;67.04
64679;BME280;51094;53.864;27.676;2023-04-26T01:15:47;98038.72;;;11.31;67.68
64679;BME280;51094;53.864;27.676;2023-04-26T01:18:14;98016.03;;;11.24;67.42
64679;BME280;51094;53.864;27.676;2023-04-26T01:20:41;98042.25;;;11.40;67.13
64679;BME280;51094;53.864;27.676;2023-04-26T01:23:09;98014.19;;;11.34;67.99
64679;BME280;51094;53.864;27.676;2023-04-26T01:25:37;97933.75;;;10.86;67.63
64679;BME280;51094;53.864;27.676;2023-04-26T01:28:04;97995.38;;;11.22;67.79
64679;BME280;51094;53.864;27.676;2023-04-26T01:30:31;98030.59;;;11.44;67.36
64679;BME280;51094;53.864;27.676;2023-04-26T01:33:01;97999.22;;;11.18;67.52
64679;BME280;51094;53.864;27.676;2023-04-26T01:35:28;98032.38;;;11.44;68.40
64679;BME280;51094;53.864;27.676;2023-04-26T01:37:55;97938.72;;;10.79;67.94
64679;BME280;51094;53.864;27.676;2023-04-26T01:40:22;97987.75;;;11.11;67.83
64679;BME280;51094;53.864;27.676;2023-04-26T01:42:49;97879.13;;;10.49;68.44
64679;BME280;51094;53.864;27.676;2023-04-26T01:45:15;98028.00;;;11.44;68.40
64679;BME280;51094;53.864;27.676;2023-04-26T01:48:01;97914.63;;;10.77;68.13
64679;BME280;51094;53.864;27.676;2023-04-26T01:50:31;98021.53;;;11.48;67.79
64679;BME280;51094;53.864;27.676;2023-04-26T01:52:58;97962.97;;;11.07;67.88
64679;BME280;51094;53.864;27.676;2023-04-26T01:55:25;98026.41;;;11.33;67.30
64679;BME280;51094;53.864;27.676;2023-04-26T01:57:52;97917.13;;;10.59;67.56
64679;BME280;51094;53.864;27.676;2023-04-26T02:00:19;98002.38;;;11.12;67.66
64679;BME280;51094;53.864;27.676;2023-04-26T02:02:48;98017.44;;;11.18;68.46
64679;BME280;51094;53.864;27.676;2023-04-26T02:05:15;98004.88;;;11.04;67.86
64679;BME280;51094;53.864;27.676;2023-04-26T02:07:41;97986.16;;;10.91;67.76
64679;BME280;51094;53.864;27.676;2023-04-26T02:10:08;98002.56;;;10.91;68.31
64679;BME280;51094;53.864;27.676;2023-04-26T02:12:35;98001.59;;;11.02;69.00
64679;BME280;51094;53.864;27.676;2023-04-26T02:15:02;98007.88;;;11.09;68.06
64679;BME280;51094;53.864;27.676;2023-04-26T02:17:29;97943.09;;;10.79;68.22
64679;BME280;51094;53.864;27.676;2023-04-26T02:19:59;97931.19;;;10.76;67.89
64679;BME280;51094;53.864;27.676;2023-04-26T02:22:26;97962.84;;;10.99;68.01
64679;BME280;51094;53.864;27.676;2023-04-26T02:24:53;97942.06;;;10.89;68.01
64679;BME280;51094;53.864;27.676;2023-04-26T02:27:25;97943.00;;;10.98;67.37
64679;BME280;51094;53.864;27.676;2023-04-26T02:29:53;97861.28;;;10.36;67.31
64679;BME280;51094;53.864;27.676;2023-04-26T02:32:20;97873.38;;;10.55;67.22
64679;BME280;51094;53.864;27.676;2023-04-26T02:34:47;97895.22;;;10.72;67.00
64679;BME280;51094;53.864;27.676;2023-04-26T02:37:15;97902.06;;;10.73;66.43
64679;BME280;51094;53.864;27.676;2023-04-26T02:39:43;97998.84;;;11.41;65.40
64679;BME280;51094;53.864;27.676;2023-04-26T02:42:10;97989.66;;;11.37;66.02
64679;BME280;51094;53.864;27.676;2023-04-26T02:44:36;97960.47;;;11.15;66.53
64679;BME280;51094;53.864;27.676;2023-04-26T02:47:05;97993.59;;;11.23;65.98
64679;BME280;51094;53.864;27.676;2023-04-26T02:49:32;97977.63;;;11.08;66.81
64679;BME280;51094;53.864;27.676;2023-04-26T02:51:59;97923.69;;;10.73;66.14
64679;BME280;51094;53.864;27.676;2023-04-26T02:54:27;97916.00;;;10.72;66.64
64679;BME280;51094;53.864;27.676;2023-04-26T02:56:54;97936.06;;;10.89;66.48
64679;BME280;51094;53.864;27.676;2023-04-26T02:59:26;97899.19;;;10.66;66.25
64679;BME280;51094;53.864;27.676;2023-04-26T03:01:54;97986.88;;;11.20;66.30
64679;BME280;51094;53.864;27.676;2023-04-26T03:04:21;97925.72;;;10.79;66.28
64679;BME280;51094;53.864;27.676;2023-04-26T03:06:48;97965.69;;;11.15;66.43
64679;BME280;51094;53.864;27.676;2023-04-26T03:09:15;97959.41;;;11.08;66.60
64679;BME280;51094;53.864;27.676;2023-04-26T03:11:41;97896.97;;;10.81;65.89
64679;BME280;51094;53.864;27.676;2023-04-26T03:14:08;97800.72;;;10.16;65.31
64679;BME280;51094;53.864;27.676;2023-04-26T03:16:43;97924.13;;;10.96;65.04
64679;BME280;51094;53.864;27.676;2023-04-26T03:19:10;97977.59;;;11.45;64.94
64679;BME280;51094;53.864;27.676;2023-04-26T03:21:38;97907.75;;;11.13;65.16
64679;BME280;51094;53.864;27.676;2023-04-26T03:24:05;97956.91;;;11.44;65.62
64679;BME280;51094;53.864;27.676;2023-04-26T03:26:33;97952.94;;;11.40;65.68
64679;BME280;51094;53.864;27.676;2023-04-26T03:28:59;97934.56;;;11.23;65.00
64679;BME280;51094;53.864;27.676;2023-04-26T03:31:27;97937.53;;;11.28;63.98
64679;BME280;51094;53.864;27.676;2023-04-26T03:33:54;97947.34;;;11.34;63.71
64679;BME280;51094;53.864;27.676;2023-04-26T03:36:21;97927.25;;;11.27;63.88
64679;BME280;51094;53.864;27.676;2023-04-26T03:38:48;97993.72;;;11.76;63.73
64679;BME280;51094;53.864;27.676;2023-04-26T03:41:16;97936.75;;;11.46;62.85
64679;BME280;51094;53.864;27.676;2023-04-26T03:43:43;97891.06;;;11.33;63.07
64679;BME280;51094;53.864;27.676;2023-04-26T03:46:10;97988.13;;;11.98;62.80
64679;BME280;51094;53.864;27.676;2023-04-26T03:48:36;97992.06;;;12.03;62.56
64679;BME280;51094;53.864;27.676;2023-04-26T03:51:03;97974.72;;;11.93;62.39
64679;BME280;51094;53.864;27.676;2023-04-26T03:53:31;97948.63;;;11.76;61.89
64679;BME280;51094;53.864;27.676;2023-04-26T03:56:01;97914.81;;;11.48;62.01
64679;BME280;51094;53.864;27.676;2023-04-26T03:58:32;97861.09;;;11.12;62.00
64679;BME280;51094;53.864;27.676;2023-04-26T04:00:58;97975.84;;;11.91;61.67
64679;BME280;51094;53.864;27.676;2023-04-26T04:03:26;97946.72;;;11.78;61.49
64679;BME280;51094;53.864;27.676;2023-04-26T04:05:55;97996.63;;;12.01;61.42
64679;BME280;51094;53.864;27.676;2023-04-26T04:08:25;98000.19;;;11.99;61.52
64679;BME280;51094;53.864;27.676;2023-04-26T04:10:51;98002.34;;;12.04;61.49
64679;BME280;51094;53.864;27.676;2023-04-26T04:13:18;97878.34;;;11.30;61.48
64679;BME280;51094;53.864;27.676;2023-04-26T04:15:48;97918.78;;;11.52;61.08
64679;BME280;51094;53.864;27.676;2023-04-26T04:18:15;97983.94;;;11.88;61.50
64679;BME280;51094;53.864;27.676;2023-04-26T04:20:42;98011.06;;;12.13;61.87
64679;BME280;51094;53.864;27.676;2023-04-26T04:23:11;97956.53;;;11.84;61.85
64679;BME280;51094;53.864;27.676;2023-04-26T04:25:39;98005.38;;;12.35;61.96
64679;BME280;51094;53.864;27.676;2023-04-26T04:28:09;97921.94;;;11.91;61.51
64679;BME280;51094;53.864;27.676;2023-04-26T04:30:37;97985.94;;;12.47;61.65
64679;BME280;51094;53.864;27.676;2023-04-26T04:33:04;98007.78;;;12.72;61.14
64679;BME280;51094;53.864;27.676;2023-04-26T04:35:34;97938.28;;;12.37;60.99
64679;BME280;51094;53.864;27.676;2023-04-26T04:38:03;98008.00;;;12.79;61.00
64679;BME280;51094;53.864;27.676;2023-04-26T04:40:30;97841.44;;;11.80;60.86
64679;BME280;51094;53.864;27.676;2023-04-26T04:42:58;97983.88;;;12.77;61.01
64679;BME280;51094;53.864;27.676;2023-04-26T04:45:30;98019.53;;;12.94;60.74
64679;BME280;51094;53.864;27.676;2023-04-26T04:47:58;98011.56;;;12.95;60.37
64679;BME280;51094;53.864;27.676;2023-04-26T04:50:25;97892.88;;;12.22;60.31
64679;BME280;51094;53.864;27.676;2023-04-26T04:52:57;98019.16;;;12.89;60.01
64679;BME280;51094;53.864;27.676;2023-04-26T04:55:24;97831.69;;;11.82;60.13
64679;BME280;51094;53.864;27.676;2023-04-26T04:57:52;98010.75;;;13.03;59.89
64679;BME280;51094;53.864;27.676;2023-04-26T05:00:19;97859.50;;;11.99;60.00
64679;BME280;51094;53.864;27.676;2023-04-26T05:02:51;97952.34;;;12.70;60.21
64679;BME280;51094;53.864;27.676;2023-04-26T05:05:18;98003.88;;;13.20;60.75
64679;BME280;51094;53.864;27.676;2023-04-26T05:07:45;97926.44;;;12.69;60.32
64679;BME280;51094;53.864;27.676;2023-04-26T05:10:13;97928.47;;;12.83;60.27
64679;BME280;51094;53.864;27.676;2023-04-26T05:12:40;97917.44;;;12.89;59.94
64679;BME280;51094;53.864;27.676;2023-04-26T05:15:10;97868.38;;;12.66;59.29
64679;BME280;51094;53.864;27.676;2023-04-26T05:17:36;98012.84;;;13.51;58.91
64679;BME280;51094;53.864;27.676;2023-04-26T05:20:19;97975.59;;;13.15;58.58
64679;BME280;51094;53.864;27.676;2023-04-26T05:22:47;98012.31;;;13.40;59.77
64679;BME280;51094;53.864;27.676;2023-04-26T05:25:13;98009.03;;;13.38;60.45
64679;BME280;51094;53.864;27.676;2023-04-26T05:27:41;97989.34;;;13.17;60.02
64679;BME280;51094;53.864;27.676;2023-04-26T05:30:14;97970.69;;;13.12;60.74
64679;BME280;51094;53.864;27.676;2023-04-26T05:32:49;97908.22;;;12.77;59.90
64679;BME280;51094;53.864;27.676;2023-04-26T05:35:44;97994.31;;;13.28;60.18
64679;BME280;51094;53.864;27.676;2023-04-26T05:38:13;97984.50;;;13.22;59.93
64679;BME280;51094;53.864;27.676;2023-04-26T05:40:45;97989.63;;;13.14;59.72
64679;BME280;51094;53.864;27.676;2023-04-26T05:43:14;97965.59;;;13.03;59.64
64679;BME280;51094;53.864;27.676;2023-04-26T05:45:53;98004.44;;;13.31;59.84
64679;BME280;51094;53.864;27.676;2023-04-26T05:48:27;97988.94;;;13.30;59.45
64679;BME280;51094;53.864;27.676;2023-04-26T05:50:55;97965.25;;;13.23;59.28
64679;BME280;51094;53.864;27.676;2023-04-26T05:53:24;97967.75;;;13.33;59.41
64679;BME280;51094;53.864;27.676;2023-04-26T05:55:51;98010.59;;;13.64;58.55
64679;BME280;51094;53.864;27.676;2023-04-26T05:58:20;97979.34;;;13.47;58.73
64679;BME280;51094;53.864;27.676;2023-04-26T06:00:48;98018.63;;;13.71;58.99
64679;BME280;51094;53.864;27.676;2023-04-26T06:03:16;98014.41;;;13.78;59.39
64679;BME280;51094;53.864;27.676;2023-04-26T06:05:44;98017.84;;;13.87;59.32
64679;BME280;51094;53.864;27.676;2023-04-26T06:08:11;97999.75;;;13.85;58.49
64679;BME280;51094;53.864;27.676;2023-04-26T06:10:40;97983.56;;;13.82;57.78
64679;BME280;51094;53.864;27.676;2023-04-26T06:13:07;97992.53;;;13.79;57.89
64679;BME280;51094;53.864;27.676;2023-04-26T06:15:35;98004.97;;;13.93;57.77
64679;BME280;51094;53.864;27.676;2023-04-26T06:18:04;98006.09;;;13.83;57.70
64679;BME280;51094;53.864;27.676;2023-04-26T06:20:32;98026.09;;;14.08;57.86
64679;BME280;51094;53.864;27.676;2023-04-26T06:22:59;97998.94;;;14.01;57.33
64679;BME280;51094;53.864;27.676;2023-04-26T06:25:26;97993.38;;;13.96;57.59
64679;BME280;51094;53.864;27.676;2023-04-26T06:27:53;98026.25;;;14.15;57.39
64679;BME280;51094;53.864;27.676;2023-04-26T06:30:20;98010.56;;;14.07;57.52
64679;BME280;51094;53.864;27.676;2023-04-26T06:32:47;97985.69;;;13.86;57.24
64679;BME280;51094;53.864;27.676;2023-04-26T06:35:14;98031.13;;;14.02;56.99
64679;BME280;51094;53.864;27.676;2023-04-26T06:37:44;97969.75;;;13.55;57.49
64679;BME280;51094;53.864;27.676;2023-04-26T06:40:11;98015.59;;;13.84;57.45
64679;BME280;51094;53.864;27.676;2023-04-26T06:42:41;98045.00;;;13.94;57.15
64679;BME280;51094;53.864;27.676;2023-04-26T06:45:23;98022.22;;;13.70;57.76
64679;BME280;51094;53.864;27.676;2023-04-26T06:47:50;98045.78;;;13.78;57.46
64679;BME280;51094;53.864;27.676;2023-04-26T06:50:22;98017.91;;;13.53;57.87
64679;BME280;51094;53.864;27.676;2023-04-26T06:52:49;98050.53;;;13.83;58.46
64679;BME280;51094;53.864;27.676;2023-04-26T06:55:17;97965.44;;;13.30;58.35
64679;BME280;51094;53.864;27.676;2023-04-26T06:57:48;98001.16;;;13.29;58.21
64679;BME280;51094;53.864;27.676;2023-04-26T07:00:17;98047.66;;;13.60;58.51
64679;BME280;51094;53.864;27.676;2023-04-26T07:02:44;98046.97;;;13.58;59.30
64679;BME280;51094;53.864;27.676;2023-04-26T07:05:11;98054.09;;;13.48;60.00
64679;BME280;51094;53.864;27.676;2023-04-26T07:07:41;97998.66;;;12.94;60.42
64679;BME280;51094;53.864;27.676;2023-04-26T07:10:09;98063.81;;;13.29;61.23
64679;BME280;51094;53.864;27.676;2023-04-26T07:12:36;98058.66;;;13.38;61.28
64679;BME280;51094;53.864;27.676;2023-04-26T07:15:03;98006.88;;;13.07;61.43
64679;BME280;51094;53.864;27.676;2023-04-26T07:17:32;98034.94;;;13.31;62.57
64679;BME280;51094;53.864;27.676;2023-04-26T07:20:02;98057.19;;;13.43;62.91
64679;BME280;51094;53.864;27.676;2023-04-26T07:22:29;98052.09;;;13.34;63.57
64679;BME280;51094;53.864;27.676;2023-04-26T07:24:58;98011.44;;;13.05;64.12
64679;BME280;51094;53.864;27.676;2023-04-26T07:27:26;98066.19;;;13.41;65.25
64679;BME280;51094;53.864;27.676;2023-04-26T07:29:56;98012.41;;;13.04;64.55
64679;BME280;51094;53.864;27.676;2023-04-26T07:32:23;97982.13;;;12.85;64.14
64679;BME280;51094;53.864;27.676;2023-04-26T07:34:50;98061.88;;;13.65;65.34
64679;BME280;51094;53.864;27.676;2023-04-26T07:37:17;98059.38;;;13.98;62.86
64679;BME280;51094;53.864;27.676;2023-04-26T07:39:47;98063.88;;;14.22;63.13
64679;BME280;51094;53.864;27.676;2023-04-26T07:42:18;98000.44;;;14.12;62.81
64679;BME280;51094;53.864;27.676;2023-04-26T07:44:46;98048.25;;;14.62;62.18
64679;BME280;51094;53.864;27.676;2023-04-26T07:47:13;98006.38;;;14.54;62.08
64679;BME280;51094;53.864;27.676;2023-04-26T07:49:41;98048.22;;;15.03;61.24
64679;BME280;51094;53.864;27.676;2023-04-26T07:52:13;98046.53;;;15.18;60.62
64679;BME280;51094;53.864;27.676;2023-04-26T07:54:40;98044.22;;;15.40;60.94
64679;BME280;51094;53.864;27.676;2023-04-26T07:57:10;98035.66;;;15.54;56.97
64679;BME280;51094;53.864;27.676;2023-04-26T07:59:36;98019.97;;;15.46;54.80
64679;BME280;51094;53.864;27.676;2023-04-26T08:02:03;98056.19;;;15.89;55.02
64679;BME280;51094;53.864;27.676;2023-04-26T08:04:32;98061.97;;;16.08;55.02
64679;BME280;51094;53.864;27.676;2023-04-26T08:07:00;98058.44;;;16.23;55.25
64679;BME280;51094;53.864;27.676;2023-04-26T08:09:28;98012.88;;;16.02;54.27
64679;BME280;51094;53.864;27.676;2023-04-26T08:11:56;98013.91;;;16.15;54.09
64679;BME280;51094;53.864;27.676;2023-04-26T08:14:23;98039.00;;;16.10;51.91
64679;BME280;51094;53.864;27.676;2023-04-26T08:16:50;98056.47;;;16.25;53.23
64679;BME280;51094;53.864;27.676;2023-04-26T08:19:17;98042.44;;;16.41;53.92
64679;BME280;51094;53.864;27.676;2023-04-26T08:21:44;98022.59;;;16.61;53.27
64679;BME280;51094;53.864;27.676;2023-04-26T08:24:12;98061.22;;;17.13;50.53
64679;BME280;51094;53.864;27.676;2023-04-26T08:26:39;98062.31;;;17.34;51.64
64679;BME280;51094;53.864;27.676;2023-04-26T08:29:06;98055.44;;;17.62;49.84
64679;BME280;51094;53.864;27.676;2023-04-26T08:31:33;98057.63;;;17.88;48.83
64679;BME280;51094;53.864;27.676;2023-04-26T08:34:01;98054.81;;;18.25;47.21
64679;BME280;51094;53.864;27.676;2023-04-26T08:36:27;98047.25;;;18.37;48.02
64679;BME280;51094;53.864;27.676;2023-04-26T08:38:54;97992.66;;;18.24;48.53
64679;BME280;51094;53.864;27.676;2023-04-26T08:41:24;98054.78;;;18.83;47.94
64679;BME280;51094;53.864;27.676;2023-04-26T08:43:52;98048.69;;;19.04;49.54
64679;BME280;51094;53.864;27.676;2023-04-26T08:46:21;97994.47;;;18.88;48.86
64679;BME280;51094;53.864;27.676;2023-04-26T08:48:56;98013.97;;;19.28;48.18
64679;BME280;51094;53.864;27.676;2023-04-26T08:51:28;98042.16;;;19.27;45.78
64679;BME280;51094;53.864;27.676;2023-04-26T08:53:56;97992.03;;;18.65;45.45
64679;BME280;51094;53.864;27.676;2023-04-26T08:56:24;97940.50;;;18.07;45.48
64679;BME280;51094;53.864;27.676;2023-04-26T08:58:55;97998.94;;;18.45;46.46
64679;BME280;51094;53.864;27.676;2023-04-26T09:01:23;98015.84;;;18.57;43.45
64679;BME280;51094;53.864;27.676;2023-04-26T09:03:54;98038.94;;;18.76;43.26
64679;BME280;51094;53.864;27.676;2023-04-26T09:06:23;98040.28;;;18.93;44.37
64679;BME280;51094;53.864;27.676;2023-04-26T09:08:50;98034.97;;;18.87;42.20
64679;BME280;51094;53.864;27.676;2023-04-26T09:11:20;98042.75;;;18.74;42.11
64679;BME280;51094;53.864;27.676;2023-04-26T09:13:48;97916.94;;;17.99;40.95
64679;BME280;51094;53.864;27.676;2023-04-26T09:16:14;97950.53;;;18.18;42.12
64679;BME280;51094;53.864;27.676;2023-04-26T09:18:50;98022.31;;;18.76;44.08
64679;BME280;51094;53.864;27.676;2023-04-26T09:21:23;98016.91;;;18.84;42.51
64679;BME280;51094;53.864;27.676;2023-04-26T09:23:59;98040.31;;;18.72;41.41
64679;BME280;51094;53.864;27.676;2023-04-26T09:26:30;98022.31;;;18.54;41.89
64679;BME280;51094;53.864;27.676;2023-04-26T09:31:47;97956.06;;;18.51;42.00
64679;BME280;51094;53.864;27.676;2023-04-26T09:34:15;98019.78;;;19.17;43.58
64679;BME280;51094;53.864;27.676;2023-04-26T09:36:52;98040.66;;;19.18;41.38
64679;BME280;51094;53.864;27.676;2023-04-26T09:39:38;98022.41;;;19.45;42.03
64679;BME280;51094;53.864;27.676;2023-04-26T09:42:06;97969.59;;;19.73;44.65
64679;BME280;51094;53.864;27.676;2023-04-26T09:44:36;97948.38;;;20.07;39.79
64679;BME280;51094;53.864;27.676;2023-04-26T09:47:06;98028.28;;;20.82;39.42
64679;BME280;51094;53.864;27.676;2023-04-26T09:49:46;97994.94;;;20.81;40.21
64679;BME280;51094;53.864;27.676;2023-04-26T09:52:14;98015.09;;;21.21;38.04
64679;BME280;51094;53.864;27.676;2023-04-26T09:54:46;98028.47;;;21.13;37.07
64679;BME280;51094;53.864;27.676;2023-04-26T09:57:25;98018.75;;;20.68;37.48
64679;BME280;51094;53.864;27.676;2023-04-26T09:59:55;98014.88;;;20.50;37.75
64679;BME280;51094;53.864;27.676;2023-04-26T10:02:27;97977.56;;;19.86;37.93
64679;BME280;51094;53.864;27.676;2023-04-26T10:04:55;97938.88;;;19.52;39.27
64679;BME280;51094;53.864;27.676;2023-04-26T10:07:28;98013.84;;;19.77;39.50
64679;BME280;51094;53.864;27.676;2023-04-26T10:09:58;97975.44;;;19.62;39.26
64679;BME280;51094;53.864;27.676;2023-04-26T10:12:27;97973.56;;;19.55;39.04
64679;BME280;51094;53.864;27.676;2023-04-26T10:14:55;97969.06;;;19.43;39.64
64679;BME280;51094;53.864;27.676;2023-04-26T10:17:23;97940.22;;;19.35;40.25
64679;BME280;51094;53.864;27.676;2023-04-26T10:19:54;98001.34;;;20.06;38.87
64679;BME280;51094;53.864;27.676;2023-04-26T10:22:24;97971.91;;;20.09;37.41
64679;BME280;51094;53.864;27.676;2023-04-26T10:24:53;97967.31;;;20.44;38.31
64679;BME280;51094;53.864;27.676;2023-04-26T10:27:45;98014.03;;;21.16;36.49
64679;BME280;51094;53.864;27.676;2023-04-26T10:30:18;97929.97;;;20.53;36.40
64679;BME280;51094;53.864;27.676;2023-04-26T10:35:28;98006.03;;;21.55;35.70
64679;BME280;51094;53.864;27.676;2023-04-26T10:40:28;97977.00;;;21.87;35.51
64679;BME280;51094;53.864;27.676;2023-04-26T10:45:38;98006.94;;;21.16;36.37
64679;BME280;51094;53.864;27.676;2023-04-26T10:53:31;97975.56;;;20.01;39.71
64679;BME280;51094;53.864;27.676;2023-04-26T10:55:58;98000.50;;;19.99;38.46
64679;BME280;51094;53.864;27.676;2023-04-26T10:58:32;97991.47;;;19.67;39.25
64679;BME280;51094;53.864;27.676;2023-04-26T11:01:08;97999.22;;;19.34;39.90
64679;BME280;51094;53.864;27.676;2023-04-26T11:04:00;97991.78;;;19.16;40.99
64679;BME280;51094;53.864;27.676;2023-04-26T11:06:53;97949.09;;;18.92;41.54
64679;BME280;51094;53.864;27.676;2023-04-26T11:09:31;97995.53;;;19.28;40.83
64679;BME280;51094;53.864;27.676;2023-04-26T11:11:58;98007.75;;;19.36;40.76
64679;BME280;51094;53.864;27.676;2023-04-26T11:14:25;97964.25;;;19.18;40.81
64679;BME280;51094;53.864;27.676;2023-04-26T11:16:55;97981.38;;;19.01;41.09
64679;BME280;51094;53.864;27.676;2023-04-26T11:19:22;97969.69;;;18.82;41.14
64679;BME280;51094;53.864;27.676;2023-04-26T11:21:48;97935.16;;;18.71;40.95
64679;BME280;51094;53.864;27.676;2023-04-26T11:24:16;98000.88;;;20.70;39.88
64679;BME280;51094;53.864;27.676;2023-04-26T11:26:50;98002.22;;;22.59;36.63
64679;BME280;51094;53.864;27.676;2023-04-26T11:29:19;97971.81;;;23.84;32.16
64679;BME280;51094;53.864;27.676;2023-04-26T11:32:05;97949.81;;;25.02;30.41
64679;BME280;51094;53.864;27.676;2023-04-26T11:34:36;97985.00;;;26.25;29.59
64679;BME280;51094;53.864;27.676;2023-04-26T11:37:05;97988.03;;;27.50;28.39
64679;BME280;51094;53.864;27.676;2023-04-26T11:39:33;97944.50;;;29.32;25.20
64679;BME280;51094;53.864;27.676;2023-04-26T11:42:07;97867.59;;;30.10;23.38
64679;BME280;51094;53.864;27.676;2023-04-26T11:44:35;97975.03;;;31.40;20.66
64679;BME280;51094;53.864;27.676;2023-04-26T11:47:06;97932.50;;;30.73;20.88
64679;BME280;51094;53.864;27.676;2023-04-26T11:49:36;97838.56;;;30.78;21.83
64679;BME280;51094;53.864;27.676;2023-04-26T11:52:05;97913.81;;;33.18;18.36
64679;BME280;51094;53.864;27.676;2023-04-26T11:54:35;97961.81;;;35.04;17.03
64679;BME280;51094;53.864;27.676;2023-04-26T11:57:14;97909.75;;;35.66;16.66
64679;BME280;51094;53.864;27.676;2023-04-26T11:59:44;97943.94;;;35.98;16.96
64679;BME280;51094;53.864;27.676;2023-04-26T12:02:12;97954.69;;;31.89;19.06
64679;BME280;51094;53.864;27.676;2023-04-26T12:04:42;97941.47;;;28.39;22.80
64679;BME280;51094;53.864;27.676;2023-04-26T12:07:17;97945.31;;;25.66;25.83
64679;BME280;51094;53.864;27.676;2023-04-26T12:09:44;97914.22;;;23.85;28.61
64679;BME280;51094;53.864;27.676;2023-04-26T12:12:11;97952.47;;;23.11;30.10
64679;BME280;51094;53.864;27.676;2023-04-26T12:14:38;97960.31;;;21.86;33.15
64679;BME280;51094;53.864;27.676;2023-04-26T12:17:06;97958.88;;;21.39;33.61
64679;BME280;51094;53.864;27.676;2023-04-26T12:19:34;97859.47;;;20.14;34.63
64679;BME280;51094;53.864;27.676;2023-04-26T12:22:06;97942.28;;;20.07;36.44
64679;BME280;51094;53.864;27.676;2023-04-26T12:24:33;97967.63;;;19.94;36.94
64679;BME280;51094;53.864;27.676;2023-04-26T12:27:03;97963.94;;;19.76;37.03
64679;BME280;51094;53.864;27.676;2023-04-26T12:29:32;97956.69;;;19.50;37.30
64679;BME280;51094;53.864;27.676;2023-04-26T12:32:10;97966.34;;;19.30;37.81
64679;BME280;51094;53.864;27.676;2023-04-26T12:34:39;97961.69;;;18.97;39.87
64679;BME280;51094;53.864;27.676;2023-04-26T12:37:08;97980.50;;;18.45;45.34
64679;BME280;51094;53.864;27.676;2023-04-26T12:39:42;98007.56;;;17.81;49.38
64679;BME280;51094;53.864;27.676;2023-04-26T12:42:10;98029.69;;;17.13;51.43
64679;BME280;51094;53.864;27.676;2023-04-26T12:44:37;97971.00;;;16.08;55.64
64679;BME280;51094;53.864;27.676;2023-04-26T12:47:06;98031.63;;;16.13;55.83
64679;BME280;51094;53.864;27.676;2023-04-26T12:49:41;98014.56;;;15.86;56.71
64679;BME280;51094;53.864;27.676;2023-04-26T12:52:08;97999.25;;;15.67;54.90
64679;BME280;51094;53.864;27.676;2023-04-26T12:54:34;98005.59;;;15.81;54.94
64679;BME280;51094;53.864;27.676;2023-04-26T12:57:03;97978.91;;;15.77;55.53
64679;BME280;51094;53.864;27.676;2023-04-26T12:59:38;97997.22;;;16.08;53.23
64679;BME280;51094;53.864;27.676;2023-04-26T13:02:05;97979.53;;;16.33;53.64
64679;BME280;51094;53.864;27.676;2023-04-26T13:04:36;97995.06;;;16.80;52.43
64679;BME280;51094;53.864;27.676;2023-04-26T13:07:07;97993.56;;;17.15;53.71
64679;BME280;51094;53.864;27.676;2023-04-26T13:09:34;97934.59;;;17.03;50.04
64679;BME280;51094;53.864;27.676;2023-04-26T13:12:09;98012.41;;;17.48;50.65
64679;BME280;51094;53.864;27.676;2023-04-26T13:14:35;97997.91;;;18.60;49.55
64679;BME280;51094;53.864;27.676;2023-04-26T13:17:06;98007.38;;;18.83;48.31